»·PEaware :: N789 KLAS-KLAX

N789 :: KLAS-KLAX

FLIGHT INFORMATION

Flight Status: Arrived
Operator: Privately registered:
United States
More flights under this callsign
Pilot: Jorge C. (29326)
Aircraft: CIRRUS VISIONJET
(SF50)
More flights by this aircraft type
Origin: KLAS McCarran Intl
United States
Destination: KLAX Los Angeles Intl
United States
More flights between these airports :: More routes between these airports
Route: BOACH8 WHIGG OTOOL ANJLL4
File this flight plan on PilotEdge
Remarks:
Altitude:
(Current/Filed)
24,000ft
Speed:
(Current/Filed)
190kts
Departed: 12-May-20 04:38 PM
Arrived: 12-May-20 05:44 PM
Distance/Time
Traveled:
205nm/1:06
Distance/Time
To Go:
Arrived

Flight Plot

Page will automatically refresh every two minutes.


Map Options




Map Legend


Flown Route
Filed Route
Departure Airport
Arrival Airport
Navaid (VOR, NDB)
Fix

Horizontal Profiles

Position Reports

Time Latitude Longitude Heading Altitude Ground
Speed
12-May-20 16:20 36.081235 -115.170537 89 2168ft 0kts
12-May-20 16:21 36.081235 -115.170537 89 2168ft 0kts
12-May-20 16:22 36.081235 -115.170537 89 2168ft 0kts
12-May-20 16:23 36.081235 -115.170537 89 2168ft 0kts
12-May-20 16:24 36.081235 -115.170537 89 2168ft 0kts
12-May-20 16:25 36.081235 -115.170537 89 2168ft 0kts
12-May-20 16:26 36.081235 -115.170537 89 2168ft 0kts
12-May-20 16:27 36.081235 -115.170537 89 2168ft 0kts
12-May-20 16:28 36.081235 -115.170537 89 2168ft 0kts
12-May-20 16:29 36.082110 -115.168827 27 2163ft 8kts
12-May-20 16:30 36.085921 -115.166772 22 2149ft 18kts
12-May-20 16:31 36.091596 -115.163492 20 2121ft 27kts
12-May-20 16:32 36.095828 -115.161073 27 2103ft 9kts
12-May-20 16:33 36.097845 -115.159911 24 2097ft 1kts
12-May-20 16:34 36.099325 -115.158838 76 2091ft 15kts
12-May-20 16:35 36.099103 -115.158020 116 2088ft 0kts
12-May-20 16:36 36.099103 -115.158019 116 2088ft 0kts
12-May-20 16:37 36.088684 -115.163004 201 2129ft 130kts
12-May-20 16:38 36.046021 -115.190472 211 2801ft 212kts
12-May-20 16:39 36.002126 -115.228481 220 3623ft 170kts
12-May-20 16:40 35.977524 -115.287455 237 4660ft 203kts
12-May-20 16:41 35.925360 -115.307009 187 5928ft 205kts
12-May-20 16:42 35.873065 -115.313253 186 7214ft 206kts
12-May-20 16:44 35.815888 -115.310300 177 8637ft 204kts
12-May-20 16:45 35.766957 -115.306185 175 3632ft 347kts
12-May-20 16:46 35.683458 -115.297358 193 4631ft 282kts
12-May-20 16:47 35.628647 -115.361787 225 6460ft 269kts
12-May-20 16:48 35.582985 -115.422871 227 8937ft 236kts
12-May-20 16:49 35.537822 -115.483514 228 11402ft 242kts
12-May-20 16:50 35.494265 -115.543473 231 13881ft 232kts
12-May-20 16:51 35.467807 -115.581619 232 15484ft 223kts
12-May-20 16:52 35.423425 -115.645652 233 18320ft 206kts
12-May-20 16:53 35.383832 -115.702691 233 21135ft 186kts
12-May-20 16:54 35.352597 -115.747607 234 23645ft 159kts
12-May-20 16:55 35.320654 -115.793685 233 24217ft 217kts
12-May-20 16:56 35.278393 -115.854225 232 24212ft 258kts
12-May-20 16:57 35.231200 -115.921732 232 24209ft 256kts
12-May-20 16:58 35.185849 -115.986584 232 24219ft 268kts
12-May-20 16:59 35.143852 -116.046476 232 24226ft 269kts
12-May-20 16:59 35.099033 -116.110298 232 24235ft 269kts
12-May-20 17:01 35.042096 -116.191200 232 24243ft 269kts
12-May-20 17:02 34.996806 -116.255420 232 24243ft 269kts
12-May-20 17:02 34.955395 -116.314036 232 24242ft 269kts
12-May-20 17:03 34.906343 -116.383345 232 24241ft 270kts
12-May-20 17:05 34.836019 -116.448451 219 24262ft 276kts
12-May-20 17:05 34.789930 -116.485666 218 23588ft 274kts
12-May-20 17:06 34.725281 -116.537769 218 22058ft 268kts
12-May-20 17:07 34.671233 -116.581232 218 20817ft 263kts
12-May-20 17:08 34.612112 -116.628669 218 19466ft 250kts
12-May-20 17:09 34.558072 -116.674894 221 19332ft 238kts
12-May-20 17:10 34.507578 -116.720199 221 19331ft 239kts
12-May-20 17:11 34.454031 -116.768177 221 19092ft 238kts
12-May-20 17:12 34.400692 -116.815731 220 19092ft 239kts
12-May-20 17:13 34.347011 -116.863316 224 19090ft 237kts
12-May-20 17:14 34.316066 -116.931708 244 19089ft 232kts
12-May-20 17:15 34.273798 -116.990454 225 19088ft 237kts
12-May-20 17:16 34.224899 -117.043570 226 18683ft 237kts
12-May-20 17:17 34.182571 -117.101883 245 17369ft 228kts
12-May-20 17:18 34.160008 -117.172662 252 17071ft 226kts
12-May-20 17:19 34.139838 -117.245143 252 17068ft 226kts
12-May-20 17:20 34.119941 -117.317258 252 17065ft 225kts
12-May-20 17:21 34.100410 -117.389954 254 15598ft 226kts
12-May-20 17:22 34.082543 -117.461153 255 14060ft 218kts
12-May-20 17:23 34.061198 -117.530969 249 13011ft 217kts
12-May-20 17:24 34.038223 -117.595647 249 12060ft 206kts
12-May-20 17:25 34.015400 -117.659075 248 12064ft 206kts
12-May-20 17:26 34.012299 -117.723395 318 12070ft 211kts
12-May-20 17:27 34.067957 -117.730286 46 12165ft 242kts
12-May-20 17:28 34.042344 -117.700983 255 11795ft 203kts
12-May-20 17:29 34.043903 -117.760826 229 11976ft 210kts
12-May-20 17:30 34.015502 -117.802717 238 11834ft 126kts
12-May-20 17:31 33.996207 -117.834622 239 10580ft 120kts
12-May-20 17:32 33.977180 -117.864898 264 9150ft 109kts
12-May-20 17:33 33.962246 -117.899302 245 8199ft 167kts
12-May-20 17:34 33.952583 -117.955961 255 8028ft 170kts
12-May-20 17:35 33.927645 -118.007896 261 7700ft 181kts
12-May-20 17:36 33.943453 -118.064293 291 7280ft 187kts
12-May-20 17:37 33.961830 -118.121383 291 6105ft 160kts
12-May-20 17:38 33.963049 -118.163592 244 5044ft 104kts
12-May-20 17:39 33.956286 -118.198365 264 5058ft 156kts
12-May-20 17:40 33.948974 -118.268072 263 3759ft 256kts
12-May-20 17:41 33.940600 -118.344474 264 1558ft 142kts
12-May-20 17:42 33.937491 -118.380991 261 196ft 79kts
12-May-20 17:43 33.935222 -118.393768 182 109ft 0kts
12-May-20 17:44 33.935141 -118.393775 184 109ft 5kts

Navigation Log

Ident Type
Flight plan parsing failed, navigation log unavailable